createdAt,value
2018-07-09T00:03:47.315Z,2.13
2018-07-09T00:09:42.340Z,2.29
2018-07-09T00:15:37.364Z,2.31
2018-07-09T00:21:32.334Z,2.36
2018-07-09T00:27:27.360Z,2.56
2018-07-09T00:33:22.378Z,2.49
2018-07-09T00:39:17.388Z,2.44
2018-07-09T00:45:12.338Z,2.56
2018-07-09T00:51:07.515Z,2.27
2018-07-09T00:57:02.399Z,2.47
2018-07-09T01:02:57.381Z,2.78
2018-07-09T01:08:52.385Z,2.42
2018-07-09T01:14:47.390Z,2.94
2018-07-09T01:20:42.412Z,3.15
2018-07-09T01:26:37.371Z,2.92
2018-07-09T01:32:32.380Z,2.96
2018-07-09T01:38:27.376Z,2.66
2018-07-09T01:44:22.392Z,2.77
2018-07-09T01:50:17.392Z,2.62
2018-07-09T01:56:12.400Z,3.07
2018-07-09T02:02:07.414Z,2.62
2018-07-09T02:08:02.399Z,2.76
2018-07-09T02:13:57.410Z,2.76
2018-07-09T02:19:52.422Z,3.13
2018-07-09T02:25:47.423Z,2.86
2018-07-09T02:31:42.458Z,3.29
2018-07-09T02:37:37.463Z,2.9
2018-07-09T02:43:32.416Z,2.96
2018-07-09T02:49:27.441Z,2.9
2018-07-09T02:55:22.445Z,3.26
2018-07-09T03:01:17.610Z,2.71
2018-07-09T03:07:12.442Z,3.17
2018-07-09T03:13:07.435Z,2.8
2018-07-09T03:19:02.565Z,2.58
2018-07-09T03:24:57.470Z,3.1
2018-07-09T03:30:52.487Z,2.87
2018-07-09T03:36:47.473Z,2.64
2018-07-09T03:42:42.463Z,2.73
2018-07-09T03:48:37.472Z,3.1
2018-07-09T03:54:32.460Z,2.86
2018-07-09T04:00:27.513Z,2.86
2018-07-09T04:06:22.490Z,2.99
2018-07-09T04:12:17.548Z,3.18
2018-07-09T04:18:12.533Z,3.02
2018-07-09T04:24:07.553Z,2.72
2018-07-09T04:30:02.904Z,2.96
2018-07-09T04:35:57.495Z,3.17
2018-07-09T04:41:52.513Z,3.54
2018-07-09T04:47:47.546Z,3.31
2018-07-09T04:53:42.566Z,3.39
2018-07-09T04:59:37.544Z,3.52
2018-07-09T05:05:32.545Z,4.02
2018-07-09T05:11:27.506Z,3.72
2018-07-09T05:17:22.562Z,3.46
2018-07-09T05:23:17.552Z,3.62
2018-07-09T05:29:12.525Z,3.68
2018-07-09T05:35:07.536Z,3.71
2018-07-09T05:41:02.557Z,3.73
2018-07-09T05:46:57.662Z,3.67
2018-07-09T05:52:52.604Z,3.75
2018-07-09T05:58:47.605Z,3.86
2018-07-09T06:04:42.577Z,3.44
2018-07-09T06:10:37.640Z,4.22
2018-07-09T06:16:32.644Z,4.28
2018-07-09T06:22:27.583Z,4.29
2018-07-09T06:28:22.621Z,4.48
2018-07-09T06:34:17.581Z,4.67
2018-07-09T06:40:12.621Z,4.39
2018-07-09T06:46:07.594Z,5.18
2018-07-09T06:52:02.599Z,4.81
2018-07-09T06:57:57.599Z,5.18
2018-07-09T07:03:52.625Z,5.69
2018-07-09T07:09:47.598Z,5.47
2018-07-09T07:15:42.627Z,4.8
2018-07-09T07:21:37.630Z,5.07
2018-07-09T07:27:32.629Z,4.23
2018-07-09T07:33:27.669Z,3.43
2018-07-09T07:39:22.759Z,2.73
2018-07-09T07:45:17.632Z,3.4
2018-07-09T07:51:12.632Z,3.49
2018-07-09T07:57:07.636Z,3.17
2018-07-09T08:03:02.725Z,4.33
2018-07-09T08:08:57.662Z,3.22
2018-07-09T08:14:52.697Z,2.76
2018-07-09T08:20:47.732Z,3.34
2018-07-09T08:26:42.675Z,3.34
2018-07-09T08:32:37.666Z,3.32
2018-07-09T08:38:32.744Z,3.33
2018-07-09T08:44:27.684Z,2.98
2018-07-09T08:50:22.817Z,2.81
2018-07-09T08:56:17.703Z,2.63
2018-07-09T09:02:12.748Z,2.42
2018-07-09T09:08:07.715Z,2.23
2018-07-09T09:14:02.730Z,2.45
2018-07-09T09:19:57.708Z,2.37
2018-07-09T09:25:52.722Z,2.41
2018-07-09T09:31:47.731Z,2.06
2018-07-09T09:37:42.770Z,2.3
2018-07-09T09:43:37.797Z,2.25
2018-07-09T09:49:32.755Z,1.96
2018-07-09T09:55:27.752Z,1.4
2018-07-09T10:01:22.747Z,2.01
2018-07-09T10:07:17.752Z,1.73
2018-07-09T10:13:12.745Z,1.65
2018-07-09T10:19:07.745Z,1.44
2018-07-09T10:25:02.943Z,1.72
2018-07-09T10:30:58.235Z,1.86
2018-07-09T10:36:52.834Z,1.74
2018-07-09T10:42:47.793Z,1.58
2018-07-09T10:48:42.775Z,1.7
2018-07-09T10:54:37.813Z,1.64
2018-07-09T11:00:32.783Z,1.42
2018-07-09T11:06:27.803Z,1.33
2018-07-09T11:12:22.782Z,1.51
2018-07-09T11:18:17.793Z,1.51
2018-07-09T11:24:12.854Z,1.33
2018-07-09T11:30:08.384Z,1.57
2018-07-09T11:36:02.863Z,1.73
2018-07-09T11:41:57.856Z,1.61
2018-07-09T11:47:52.868Z,1.57
2018-07-09T11:53:47.895Z,1.46
2018-07-09T11:59:42.881Z,1.33
2018-07-09T12:05:37.866Z,1.43
2018-07-09T12:11:32.837Z,1.15
2018-07-09T12:17:27.859Z,1.61
2018-07-09T12:23:22.885Z,1.45
2018-07-09T12:29:17.938Z,1.42
2018-07-09T12:35:12.863Z,1.35
2018-07-09T12:41:07.876Z,1.64
2018-07-09T12:47:02.887Z,1.11
2018-07-09T12:52:57.906Z,1.4
2018-07-09T12:58:52.891Z,1.29
2018-07-09T13:04:47.905Z,1.4
2018-07-09T13:10:42.890Z,1.44
2018-07-09T13:16:37.888Z,1.65
2018-07-09T13:22:32.905Z,1.11
2018-07-09T13:28:27.943Z,1.05
2018-07-09T13:34:22.909Z,1.36
2018-07-09T13:40:17.889Z,1.14
2018-07-09T13:46:12.935Z,1.38
2018-07-09T13:52:07.939Z,1.28
2018-07-09T13:58:02.961Z,1.18
2018-07-09T14:03:57.950Z,1.38
2018-07-09T14:09:52.945Z,1.62
2018-07-09T14:15:47.935Z,1.61
2018-07-09T14:21:42.944Z,1.41
2018-07-09T14:27:37.951Z,1.4
2018-07-09T14:33:33.015Z,1.75
2018-07-09T14:39:28.033Z,1.57
2018-07-09T14:45:22.961Z,1.48
2018-07-09T14:51:17.971Z,1.77
2018-07-09T14:57:13.061Z,1.92
2018-07-09T15:03:07.963Z,1.55
2018-07-09T15:09:02.979Z,1.68
2018-07-09T15:14:58.028Z,2.11
2018-07-09T15:20:53.130Z,2.06
2018-07-09T15:26:48.011Z,2.32
2018-07-09T15:32:42.991Z,2.7
2018-07-09T15:38:38.013Z,2.9
2018-07-09T15:44:33.053Z,2.8
2018-07-09T15:50:28.040Z,2.94
2018-07-09T15:56:22.995Z,2.77
2018-07-09T16:02:18.043Z,3.28
2018-07-09T16:08:13.018Z,2.9
2018-07-09T16:14:08.043Z,3.12
2018-07-09T16:20:03.060Z,2.61
2018-07-09T16:25:58.087Z,3.31
2018-07-09T16:31:53.081Z,2.93
2018-07-09T16:37:48.100Z,2.75
2018-07-09T16:43:43.133Z,2.97
2018-07-09T16:49:38.058Z,3.13
2018-07-09T16:55:33.292Z,3.07
2018-07-09T17:01:28.070Z,3.45
2018-07-09T17:07:23.162Z,3.15
2018-07-09T17:13:18.109Z,3.17
2018-07-09T17:19:13.118Z,3.02
2018-07-09T17:25:08.102Z,3.34
2018-07-09T17:31:03.196Z,3.17
2018-07-09T17:36:58.182Z,3.42
2018-07-09T17:42:53.140Z,3.41
2018-07-09T17:48:48.126Z,3.06
2018-07-09T17:54:43.102Z,3.39
2018-07-09T18:00:38.131Z,3.68
2018-07-09T18:06:33.121Z,3.27
2018-07-09T18:12:28.253Z,3.73
2018-07-09T18:18:23.136Z,3.36
2018-07-09T18:24:18.129Z,3.73
2018-07-09T18:30:13.124Z,3.59
2018-07-09T18:36:08.180Z,3.68
2018-07-09T18:42:03.378Z,3.72
2018-07-09T18:47:58.186Z,3.79
2018-07-09T18:53:53.170Z,3.92
2018-07-09T18:59:48.178Z,3.94
2018-07-09T19:05:43.183Z,4.44
2018-07-09T19:11:38.175Z,4.18
2018-07-09T19:17:33.183Z,4.23
2018-07-09T19:23:28.161Z,4.2
2018-07-09T19:29:23.172Z,4.58
2018-07-09T19:35:18.181Z,4.3
2018-07-09T19:41:13.234Z,3.68
2018-07-09T19:47:08.317Z,3.87
2018-07-09T19:53:03.198Z,4.13
2018-07-09T19:58:58.195Z,4.24
2018-07-09T20:04:53.274Z,4.15
2018-07-09T20:10:48.258Z,4.62
2018-07-09T20:16:43.203Z,4.14
2018-07-09T20:22:38.215Z,4.13
2018-07-09T20:28:33.246Z,4.43
2018-07-09T20:34:28.236Z,4.12
2018-07-09T20:40:23.234Z,4.37
2018-07-09T20:46:18.311Z,4.12
2018-07-09T20:52:13.232Z,3.65
2018-07-09T20:58:08.247Z,4.08
2018-07-09T21:04:03.249Z,3.97
2018-07-09T21:09:58.241Z,4.39
2018-07-09T21:15:53.415Z,4.16
2018-07-09T21:21:48.275Z,4.49
2018-07-09T21:27:43.253Z,3.89
2018-07-09T21:33:38.284Z,3.84
2018-07-09T21:39:33.249Z,4.07
2018-07-09T21:45:28.324Z,4.1
2018-07-09T21:51:23.260Z,4.5
2018-07-09T21:57:18.330Z,4.23
2018-07-09T22:03:13.336Z,3.87
2018-07-09T22:09:08.285Z,4.08
2018-07-09T22:15:03.305Z,3.95
2018-07-09T22:20:58.302Z,3.94
2018-07-09T22:26:53.298Z,4.11
2018-07-09T22:32:48.309Z,4.51
2018-07-09T22:38:43.309Z,4.16
2018-07-09T22:44:38.311Z,3.54
2018-07-09T22:50:33.322Z,3.68
2018-07-09T22:56:28.364Z,4.03
2018-07-09T23:02:23.339Z,4.46
2018-07-09T23:08:18.318Z,4.05
2018-07-09T23:14:13.332Z,4.91
2018-07-09T23:20:08.363Z,4.62
2018-07-09T23:26:03.339Z,4.12
2018-07-09T23:31:58.354Z,4.51
2018-07-09T23:37:53.398Z,4.58
2018-07-09T23:43:48.347Z,4.52
2018-07-09T23:49:43.354Z,4.84
2018-07-09T23:55:38.358Z,5.09
